createdAt,value
2022-08-27T00:00:54.226Z,9.18
2022-08-27T00:03:22.523Z,8.38
2022-08-27T00:05:50.962Z,11.23
2022-08-27T00:08:19.366Z,8.60
2022-08-27T00:10:47.566Z,8.55
2022-08-27T00:13:16.982Z,9.05
2022-08-27T00:15:45.851Z,10.15
2022-08-27T00:18:16.049Z,10.05
2022-08-27T00:20:46.389Z,8.55
2022-08-27T00:23:14.585Z,10.82
2022-08-27T00:25:42.801Z,10.88
2022-08-27T00:28:11.208Z,10.25
2022-08-27T00:30:40.047Z,10.93
2022-08-27T00:33:08.239Z,10.98
2022-08-27T00:35:38.234Z,12.95
2022-08-27T00:38:07.333Z,11.23
2022-08-27T00:40:36.163Z,9.52
2022-08-27T00:43:04.535Z,11.55
2022-08-27T00:45:38.899Z,9.95
2022-08-27T00:48:10.758Z,10.57
2022-08-27T00:50:44.690Z,10.63
2022-08-27T00:53:17.822Z,11.65
2022-08-27T00:55:50.445Z,10.70
2022-08-27T00:58:27.563Z,9.35
2022-08-27T01:00:57.489Z,8.60
2022-08-27T01:03:26.986Z,11.18
2022-08-27T01:06:01.622Z,9.80
2022-08-27T01:08:33.776Z,10.38
2022-08-27T01:11:02.762Z,9.35
2022-08-27T01:13:58.687Z,9.68
2022-08-27T01:16:28.224Z,8.15
2022-08-27T01:19:00.883Z,9.52
2022-08-27T01:21:40.219Z,9.80
2022-08-27T01:24:32.540Z,9.20
2022-08-27T01:27:02.422Z,9.95
2022-08-27T01:29:32.325Z,10.25
2022-08-27T01:32:07.968Z,7.72
2022-08-27T01:34:36.357Z,9.60
2022-08-27T01:37:06.592Z,8.68
2022-08-27T01:39:39.447Z,7.88
2022-08-27T01:42:12.897Z,8.63
2022-08-27T01:44:49.904Z,8.32
2022-08-27T01:47:20.581Z,8.13
2022-08-27T01:49:49.557Z,6.55
2022-08-27T01:52:22.021Z,9.38
2022-08-27T01:54:51.870Z,7.07
2022-08-27T01:57:25.273Z,9.18
2022-08-27T01:59:54.852Z,6.38
2022-08-27T02:02:23.323Z,7.60
2022-08-27T02:04:52.198Z,8.02
2022-08-27T02:07:20.591Z,9.82
2022-08-27T02:09:48.822Z,7.97
2022-08-27T02:12:18.515Z,5.28
2022-08-27T02:14:46.790Z,7.63
2022-08-27T02:17:14.928Z,9.05
2022-08-27T02:19:43.356Z,7.32
2022-08-27T02:22:11.515Z,11.00
2022-08-27T02:24:40.486Z,8.13
2022-08-27T02:27:09.429Z,8.23
2022-08-27T02:29:38.952Z,7.88
2022-08-27T02:32:07.487Z,6.22
2022-08-27T02:34:46.045Z,9.85
2022-08-27T02:37:14.477Z,7.78
2022-08-27T02:39:46.008Z,7.78
2022-08-27T02:42:14.380Z,7.40
2022-08-27T02:44:44.060Z,8.75
2022-08-27T02:47:12.697Z,8.00
2022-08-27T02:49:41.103Z,8.65
2022-08-27T02:52:09.859Z,7.80
2022-08-27T02:54:38.664Z,9.10
2022-08-27T02:57:07.848Z,9.23
2022-08-27T02:59:36.454Z,11.35
2022-08-27T03:02:06.292Z,9.10
2022-08-27T03:04:35.927Z,7.95
2022-08-27T03:07:04.518Z,8.20
2022-08-27T03:09:32.729Z,9.63
2022-08-27T03:12:02.146Z,8.98
2022-08-27T03:14:31.305Z,8.95
2022-08-27T03:17:20.337Z,7.05
2022-08-27T03:19:50.638Z,7.85
2022-08-27T03:22:19.012Z,8.38
2022-08-27T03:24:47.216Z,8.95
2022-08-27T03:27:15.528Z,11.27
2022-08-27T03:29:43.703Z,8.27
2022-08-27T03:32:11.886Z,8.93
2022-08-27T03:34:40.189Z,8.73
2022-08-27T03:37:09.767Z,6.68
2022-08-27T03:39:37.990Z,7.82
2022-08-27T03:42:06.648Z,8.27
2022-08-27T03:44:35.166Z,7.90
2022-08-27T03:47:04.098Z,7.40
2022-08-27T03:49:32.884Z,7.10
2022-08-27T03:52:01.192Z,9.20
2022-08-27T03:54:31.233Z,7.45
2022-08-27T03:56:59.443Z,9.40
2022-08-27T03:59:27.683Z,7.28
2022-08-27T04:01:55.979Z,7.90
2022-08-27T04:04:24.820Z,6.53
2022-08-27T04:06:53.390Z,8.00
2022-08-27T04:09:27.027Z,6.88
2022-08-27T04:11:56.996Z,7.15
2022-08-27T04:14:27.326Z,7.57
2022-08-27T04:16:56.962Z,8.50
2022-08-27T04:19:27.941Z,6.45
2022-08-27T04:22:01.778Z,7.07
2022-08-27T04:24:31.818Z,10.60
2022-08-27T04:27:02.514Z,8.70
2022-08-27T04:29:31.744Z,8.07
2022-08-27T04:32:01.039Z,8.77
2022-08-27T04:34:29.309Z,6.80
2022-08-27T04:36:58.750Z,7.55
2022-08-27T04:39:28.062Z,6.47
2022-08-27T04:42:00.850Z,7.07
2022-08-27T04:44:33.440Z,7.72
2022-08-27T04:47:05.561Z,8.35
2022-08-27T04:49:34.873Z,9.27
2022-08-27T04:52:04.830Z,7.90
2022-08-27T04:54:33.941Z,7.55
2022-08-27T04:57:05.791Z,5.85
2022-08-27T04:59:35.902Z,7.85
2022-08-27T05:02:05.933Z,6.72
2022-08-27T05:04:37.822Z,7.13
2022-08-27T05:07:06.281Z,6.63
2022-08-27T05:09:35.186Z,8.63
2022-08-27T05:12:05.236Z,6.70
2022-08-27T05:14:33.562Z,9.02
2022-08-27T05:17:02.703Z,6.32
2022-08-27T05:19:31.369Z,8.70
2022-08-27T05:21:59.622Z,6.43
2022-08-27T05:24:27.914Z,5.85
2022-08-27T05:26:56.094Z,8.15
2022-08-27T05:29:28.462Z,8.43
2022-08-27T05:31:56.668Z,7.88
2022-08-27T05:34:26.359Z,8.25
2022-08-27T05:36:55.748Z,7.88
2022-08-27T05:39:24.318Z,8.40
2022-08-27T05:41:53.790Z,7.03
2022-08-27T05:44:40.923Z,6.18
2022-08-27T05:47:11.921Z,12.13
2022-08-27T05:49:40.377Z,10.18
2022-08-27T05:52:12.733Z,9.50
2022-08-27T05:54:41.181Z,8.05
2022-08-27T05:57:10.179Z,7.90
2022-08-27T05:59:56.669Z,10.48
2022-08-27T06:02:26.953Z,9.23
2022-08-27T06:04:55.608Z,10.55
2022-08-27T06:07:24.027Z,6.53
2022-08-27T06:09:52.294Z,10.63
2022-08-27T06:12:20.461Z,10.00
2022-08-27T06:14:56.540Z,10.45
2022-08-27T06:17:26.199Z,6.85
2022-08-27T06:19:54.365Z,7.47
2022-08-27T06:22:22.901Z,8.05
2022-08-27T06:24:51.775Z,8.75
2022-08-27T06:27:20.981Z,7.97
2022-08-27T06:29:49.310Z,6.40
2022-08-27T06:32:17.812Z,9.90
2022-08-27T06:34:47.462Z,7.60
2022-08-27T06:37:15.680Z,6.90
2022-08-27T06:39:43.950Z,6.85
2022-08-27T06:42:14.458Z,10.20
2022-08-27T06:44:43.118Z,8.38
2022-08-27T06:47:11.850Z,7.57
2022-08-27T06:49:46.242Z,8.43
2022-08-27T06:52:16.742Z,7.88
2022-08-27T06:54:45.875Z,7.43
2022-08-27T06:57:14.149Z,9.70
2022-08-27T06:59:42.382Z,9.35
2022-08-27T07:02:10.811Z,7.53
2022-08-27T07:04:39.114Z,6.22
2022-08-27T07:09:43.447Z,7.13
2022-08-27T07:12:11.665Z,7.47
2022-08-27T07:14:59.089Z,8.93
2022-08-27T07:17:29.369Z,9.07
2022-08-27T07:19:58.830Z,8.18
2022-08-27T07:22:29.103Z,8.98
2022-08-27T07:25:24.361Z,8.15
2022-08-27T07:27:57.277Z,7.90
2022-08-27T07:33:19.662Z,8.48
2022-08-27T07:35:51.248Z,9.88
2022-08-27T07:38:39.102Z,7.88
2022-08-27T07:41:36.075Z,7.97
2022-08-27T07:44:26.427Z,8.50
2022-08-27T07:47:11.445Z,8.77
2022-08-27T07:52:26.644Z,9.25
2022-08-27T07:54:55.900Z,7.30
2022-08-27T07:57:26.365Z,8.15
2022-08-27T08:00:00.748Z,8.25
2022-08-27T08:02:30.939Z,8.63
2022-08-27T08:08:39.470Z,7.97
2022-08-27T09:00:16.782Z,8.05
2022-08-27T09:02:55.751Z,7.18
2022-08-27T09:08:37.705Z,8.23
2022-08-27T09:11:23.777Z,6.97
2022-08-27T09:13:57.323Z,7.25
2022-08-27T09:16:27.859Z,7.30
2022-08-27T09:18:56.440Z,7.72
2022-08-27T09:21:38.142Z,7.60
2022-08-27T09:24:13.351Z,5.65
2022-08-27T09:26:51.833Z,8.75
2022-08-27T09:29:20.907Z,7.88
2022-08-27T09:32:00.279Z,7.78
2022-08-27T09:34:35.906Z,6.55
2022-08-27T09:37:11.502Z,8.90
2022-08-27T09:39:52.022Z,7.45
2022-08-27T09:42:30.925Z,5.25
2022-08-27T09:44:59.737Z,7.10
2022-08-27T09:47:29.541Z,6.65
2022-08-27T09:50:09.869Z,7.55
2022-08-27T09:52:51.121Z,7.43
2022-08-27T09:55:36.721Z,7.05
2022-08-27T09:58:07.462Z,7.13
2022-08-27T10:00:40.155Z,5.90
2022-08-27T10:03:11.407Z,8.02
2022-08-27T10:05:45.140Z,6.18
2022-08-27T10:08:25.303Z,5.32
2022-08-27T10:11:00.108Z,6.38
2022-08-27T10:13:34.287Z,5.88
2022-08-27T10:16:22.753Z,5.80
2022-08-27T10:19:01.990Z,6.13
2022-08-27T10:21:40.425Z,5.97
2022-08-27T10:24:22.019Z,4.60
2022-08-27T10:26:59.892Z,6.00
2022-08-27T10:29:37.730Z,5.32
2022-08-27T10:32:21.237Z,5.47
2022-08-27T10:35:04.377Z,4.85
2022-08-27T10:37:41.349Z,5.68
2022-08-27T10:40:18.007Z,4.72
2022-08-27T10:42:58.721Z,5.00
2022-08-27T10:45:42.731Z,5.13
2022-08-27T10:48:27.033Z,5.40
2022-08-27T10:51:07.119Z,8.40
2022-08-27T10:53:44.099Z,6.40
2022-08-27T10:56:20.341Z,5.53
2022-08-27T10:59:02.451Z,4.53
2022-08-27T11:01:41.680Z,5.38
2022-08-27T11:04:15.755Z,5.65
2022-08-27T11:06:53.797Z,6.38
2022-08-27T11:09:26.566Z,7.20
2022-08-27T11:12:15.774Z,4.15
2022-08-27T11:14:50.657Z,8.80
2022-08-27T11:17:26.863Z,5.97
2022-08-27T11:20:07.128Z,4.65
2022-08-27T11:22:42.490Z,5.97
2022-08-27T11:25:31.506Z,7.60
2022-08-27T11:28:01.773Z,7.30
2022-08-27T11:30:40.681Z,7.75
2022-08-27T11:33:17.790Z,6.22
2022-08-27T11:36:10.010Z,3.63
2022-08-27T11:38:56.465Z,6.88
2022-08-27T11:41:49.996Z,4.85
2022-08-27T11:44:20.593Z,6.85
2022-08-27T11:46:53.527Z,5.85
2022-08-27T11:49:35.533Z,6.25
2022-08-27T11:52:07.263Z,4.97
2022-08-27T11:54:49.061Z,3.28
2022-08-27T11:57:28.458Z,6.47
2022-08-27T11:59:57.195Z,6.55
2022-08-27T12:02:29.463Z,5.70
2022-08-27T12:05:11.695Z,6.65
2022-08-27T12:07:50.856Z,6.47
2022-08-27T12:10:31.498Z,5.35
2022-08-27T12:13:18.182Z,8.15
2022-08-27T12:16:03.284Z,8.00
2022-08-27T12:19:07.524Z,5.65
2022-08-27T12:21:49.756Z,5.82
2022-08-27T12:24:49.864Z,6.97
2022-08-27T12:27:34.440Z,5.78
2022-08-27T12:30:21.722Z,7.18
2022-08-27T12:32:53.005Z,7.80
2022-08-27T12:35:24.804Z,5.30
2022-08-27T12:37:56.953Z,6.70
2022-08-27T12:40:29.470Z,6.40
2022-08-27T12:43:09.098Z,4.82
2022-08-27T12:45:47.083Z,6.15
2022-08-27T12:48:18.629Z,5.20
2022-08-27T12:50:54.221Z,7.15
2022-08-27T12:53:41.053Z,5.35
2022-08-27T12:56:40.453Z,5.20
2022-08-27T12:59:40.628Z,6.15
2022-08-27T13:02:31.223Z,4.53
2022-08-27T13:05:10.089Z,4.20
2022-08-27T13:07:43.943Z,6.95
2022-08-27T13:10:18.170Z,4.65
2022-08-27T13:12:49.128Z,6.18
2022-08-27T13:15:21.146Z,4.10
2022-08-27T13:17:52.777Z,5.90
2022-08-27T13:20:25.484Z,7.68
2022-08-27T13:22:55.343Z,8.57
2022-08-27T13:25:28.855Z,8.07
2022-08-27T13:28:07.845Z,10.30
2022-08-27T13:30:41.620Z,4.72
2022-08-27T13:33:15.967Z,6.13
2022-08-27T13:35:47.474Z,6.85
2022-08-27T13:38:17.100Z,6.15
2022-08-27T13:40:56.779Z,5.28
2022-08-27T13:43:34.261Z,5.10
2022-08-27T13:46:09.108Z,5.82
2022-08-27T13:48:41.512Z,9.70
2022-08-27T13:51:10.305Z,4.90
2022-08-27T13:54:01.710Z,7.45
2022-08-27T13:56:32.925Z,4.63
2022-08-27T13:59:12.409Z,4.10
2022-08-27T14:01:45.223Z,3.95
2022-08-27T14:04:25.243Z,6.32
2022-08-27T14:06:54.675Z,4.53
2022-08-27T14:09:26.643Z,4.78
2022-08-27T14:12:03.455Z,5.20
2022-08-27T14:14:37.848Z,3.72
2022-08-27T14:17:22.034Z,5.53
2022-08-27T14:19:50.733Z,6.25
2022-08-27T14:22:19.110Z,6.90
2022-08-27T14:24:47.344Z,5.97
2022-08-27T14:27:20.157Z,5.45
2022-08-27T14:29:49.637Z,6.05
2022-08-27T14:32:20.974Z,7.65
2022-08-27T14:34:49.633Z,5.28
2022-08-27T14:37:17.977Z,7.32
2022-08-27T14:39:49.239Z,5.70
2022-08-27T14:42:18.557Z,6.65
2022-08-27T14:44:47.861Z,6.65
2022-08-27T14:47:18.233Z,4.63
2022-08-27T14:49:48.598Z,4.45
2022-08-27T14:52:17.217Z,5.72
2022-08-27T14:54:45.665Z,11.25
2022-08-27T14:57:15.124Z,4.97
2022-08-27T14:59:43.499Z,4.72
2022-08-27T15:02:14.799Z,4.40
2022-08-27T15:04:46.506Z,6.82
2022-08-27T15:07:16.382Z,7.75
2022-08-27T15:09:45.113Z,5.05
2022-08-27T15:12:21.720Z,5.75
2022-08-27T15:14:55.400Z,5.70
2022-08-27T15:17:34.345Z,5.22
2022-08-27T15:20:07.974Z,8.55
2022-08-27T15:22:37.863Z,7.22
2022-08-27T15:25:10.638Z,6.30
2022-08-27T15:27:39.284Z,5.47
2022-08-27T15:30:11.048Z,5.32
2022-08-27T15:32:45.690Z,4.82
2022-08-27T15:35:18.659Z,5.72
2022-08-27T15:37:46.932Z,6.68
2022-08-27T15:40:18.592Z,6.45
2022-08-27T15:42:49.247Z,6.13
2022-08-27T15:45:17.464Z,4.78
2022-08-27T15:47:45.851Z,5.65
2022-08-27T15:50:15.446Z,5.75
2022-08-27T15:52:44.531Z,11.25
2022-08-27T15:55:21.689Z,6.72
2022-08-27T15:57:50.513Z,5.63
2022-08-27T16:00:21.802Z,7.80
2022-08-27T16:02:51.159Z,6.22
2022-08-27T16:05:22.636Z,5.68
2022-08-27T16:07:51.410Z,7.40
2022-08-27T16:10:25.210Z,13.52
2022-08-27T16:12:53.755Z,6.13
2022-08-27T16:15:22.517Z,6.43
2022-08-27T16:17:56.583Z,5.57
2022-08-27T16:20:30.078Z,5.82
2022-08-27T16:22:58.376Z,10.70
2022-08-27T16:25:36.884Z,6.43
2022-08-27T16:28:19.724Z,5.03
2022-08-27T16:30:50.129Z,6.43
2022-08-27T16:33:39.517Z,7.25
2022-08-27T16:36:11.786Z,7.82
2022-08-27T16:38:42.209Z,8.18
2022-08-27T16:41:10.762Z,7.63
2022-08-27T16:43:45.050Z,5.40
2022-08-27T16:46:13.423Z,7.32
2022-08-27T16:49:02.353Z,10.30
2022-08-27T16:51:37.517Z,5.70
2022-08-27T16:54:11.067Z,10.32
2022-08-27T16:56:40.978Z,5.82
2022-08-27T16:59:13.035Z,8.50
2022-08-27T17:01:45.374Z,7.00
2022-08-27T17:04:23.701Z,6.68
2022-08-27T17:06:56.722Z,5.90
2022-08-27T17:09:26.579Z,6.43
2022-08-27T17:11:58.745Z,9.88
2022-08-27T17:14:27.528Z,7.18
2022-08-27T17:17:04.576Z,11.93
2022-08-27T17:19:37.002Z,9.00
2022-08-27T17:22:09.480Z,7.75
2022-08-27T17:24:39.353Z,7.18
2022-08-27T17:27:18.027Z,8.55
2022-08-27T17:29:46.568Z,6.05
2022-08-27T17:32:15.396Z,5.38
2022-08-27T17:34:44.853Z,8.10
2022-08-27T18:04:34.497Z,7.65
2022-08-27T18:10:03.719Z,8.35
2022-08-27T18:50:30.726Z,5.38
2022-08-27T19:00:10.335Z,7.13
2022-08-27T19:07:22.894Z,7.55
2022-08-27T19:20:44.407Z,10.45
2022-08-27T19:23:22.160Z,11.43
2022-08-27T19:26:01.542Z,9.13
2022-08-27T19:31:46.658Z,7.55
2022-08-27T20:52:15.872Z,7.32
2022-08-27T20:54:46.643Z,8.48
2022-08-27T20:57:18.060Z,9.43
2022-08-27T21:00:04.068Z,10.00
2022-08-27T21:02:35.141Z,7.28
2022-08-27T21:05:12.628Z,6.72
2022-08-27T21:07:42.289Z,8.52
2022-08-27T21:10:10.953Z,10.75
2022-08-27T21:12:39.187Z,10.18
2022-08-27T21:15:09.453Z,9.32
2022-08-27T21:17:38.099Z,11.40
2022-08-27T21:20:11.189Z,12.85
2022-08-27T21:22:40.589Z,8.88
2022-08-27T21:25:10.385Z,9.00
2022-08-27T21:27:39.119Z,9.23
2022-08-27T21:30:10.857Z,8.15
2022-08-27T21:32:39.667Z,9.15
2022-08-27T21:35:11.114Z,10.85
2022-08-27T21:37:39.305Z,9.15
2022-08-27T21:40:10.194Z,10.25
2022-08-27T21:42:38.957Z,8.85
2022-08-27T21:45:08.425Z,9.98
2022-08-27T21:47:36.764Z,12.85
2022-08-27T21:50:09.843Z,12.13
2022-08-27T21:52:38.807Z,12.55
2022-08-27T21:55:09.197Z,10.05
2022-08-27T21:57:37.944Z,7.72
2022-08-27T22:00:22.884Z,12.98
2022-08-27T22:02:54.825Z,11.02
2022-08-27T22:05:24.886Z,9.38
2022-08-27T22:07:53.112Z,11.70
2022-08-27T22:10:21.533Z,13.13
2022-08-27T22:12:49.678Z,12.48
2022-08-27T22:15:21.665Z,11.20
2022-08-27T22:17:51.718Z,11.65
2022-08-27T22:20:20.740Z,10.88
2022-08-27T22:22:50.404Z,12.32
2022-08-27T22:25:18.658Z,12.38
2022-08-27T22:27:47.389Z,10.20
2022-08-27T22:30:17.383Z,11.50
2022-08-27T22:32:45.860Z,10.85
2022-08-27T22:35:17.382Z,12.05
2022-08-27T22:37:45.921Z,12.95
2022-08-27T22:40:20.423Z,11.20
2022-08-27T22:42:48.765Z,12.27
2022-08-27T22:45:17.820Z,12.50
2022-08-27T22:47:45.997Z,10.57
2022-08-27T22:50:14.741Z,10.82
2022-08-27T22:52:43.128Z,14.48
2022-08-27T22:55:18.719Z,12.27
2022-08-27T22:57:47.521Z,11.88
2022-08-27T23:00:19.305Z,11.70
2022-08-27T23:02:47.741Z,13.73
2022-08-27T23:05:17.393Z,11.50
2022-08-27T23:07:46.257Z,10.70
2022-08-27T23:10:19.071Z,13.75
2022-08-27T23:12:48.363Z,11.38
2022-08-27T23:15:20.976Z,13.00
2022-08-27T23:17:49.487Z,13.52
2022-08-27T23:20:18.612Z,11.70
2022-08-27T23:22:46.859Z,13.35
2022-08-27T23:25:35.399Z,13.35
2022-08-27T23:28:06.464Z,13.70
2022-08-27T23:30:36.708Z,11.45
2022-08-27T23:33:05.304Z,13.27
2022-08-27T23:35:33.655Z,12.35
2022-08-27T23:38:01.859Z,11.05
2022-08-27T23:40:31.523Z,13.38
2022-08-27T23:42:59.931Z,15.30
2022-08-27T23:45:29.783Z,10.93
2022-08-27T23:47:58.028Z,13.30
2022-08-27T23:50:33.762Z,12.52
2022-08-27T23:53:02.506Z,14.07
2022-08-27T23:55:32.415Z,14.75
2022-08-27T23:58:00.947Z,12.82
